<?xml version="1.0" encoding="utf-8"?>
<gpx xmlns:xsi="http://www.w3.org/2001/XMLSchema-instance" xmlns:xsd="http://www.w3.org/2001/XMLSchema" version="1.1" creator="Shapelink.com" xmlns="http://www.topografix.com/GPX/1/1" xmlns:gpxtpx="http://www.garmin.com/xmlschemas/TrackPointExtension/v1">
  <metadata>
    <name>Ejecutar 7.66 km, 2020-01-29</name>
    <desc></desc>
    <author><name>Per Rooth</name></author> 
    <time>2020-01-29T12:03:27Z</time>
  </metadata>
  <trk>
    <name>Ejecutar 7.66 km, 2020-01-29</name>
    <trkseg>
      <trkpt lat="56.873181614517" lon="14.792825216374">
        <ele>179.4</ele>
        <time>2020-01-29T12:03:27Z</time>
      </trkpt>
      <trkpt lat="56.873153870428" lon="14.792836112844">
        <ele>180.4</ele>
        <time>2020-01-29T12:03:28Z</time>
      </trkpt>
      <trkpt lat="56.873127886538" lon="14.792829491143">
        <ele>179</ele>
        <time>2020-01-29T12:03:29Z</time>
      </trkpt>
      <trkpt lat="56.87307658931" lon="14.792815158094">
        <ele>177.8</ele>
        <time>2020-01-29T12:03:31Z</time>
      </trkpt>
      <trkpt lat="56.87287207095" lon="14.792742822297">
        <ele>178.8</ele>
        <time>2020-01-29T12:03:40Z</time>
      </trkpt>
      <trkpt lat="56.872688339702" lon="14.792842399269">
        <ele>178.4</ele>
        <time>2020-01-29T12:03:48Z</time>
      </trkpt>
      <trkpt lat="56.872590271472" lon="14.792856061766">
        <ele>178.8</ele>
        <time>2020-01-29T12:03:52Z</time>
      </trkpt>
      <trkpt lat="56.872404696206" lon="14.792769728196">
        <ele>178.4</ele>
        <time>2020-01-29T12:04:00Z</time>
      </trkpt>
      <trkpt lat="56.872379299049" lon="14.792733266931">
        <ele>178.6</ele>
        <time>2020-01-29T12:04:02Z</time>
      </trkpt>
      <trkpt lat="56.872199255837" lon="14.792689597232">
        <ele>178.4</ele>
        <time>2020-01-29T12:04:09Z</time>
      </trkpt>
      <trkpt lat="56.872012590924" lon="14.792750701283">
        <ele>178</ele>
        <time>2020-01-29T12:04:16Z</time>
      </trkpt>
      <trkpt lat="56.871843863277" lon="14.792881794199">
        <ele>178.2</ele>
        <time>2020-01-29T12:04:22Z</time>
      </trkpt>
      <trkpt lat="56.871817125016" lon="14.792900402017">
        <ele>178.2</ele>
        <time>2020-01-29T12:04:23Z</time>
      </trkpt>
      <trkpt lat="56.871649487016" lon="14.793021604291">
        <ele>178.2</ele>
        <time>2020-01-29T12:04:29Z</time>
      </trkpt>
      <trkpt lat="56.871441532077" lon="14.793054209882">
        <ele>178.2</ele>
        <time>2020-01-29T12:04:35Z</time>
      </trkpt>
      <trkpt lat="56.871275402819" lon="14.792983299008">
        <ele>177.8</ele>
        <time>2020-01-29T12:04:41Z</time>
      </trkpt>
      <trkpt lat="56.871189907439" lon="14.792938455843">
        <ele>177.4</ele>
        <time>2020-01-29T12:04:44Z</time>
      </trkpt>
      <trkpt lat="56.870996956101" lon="14.792853798653">
        <ele>177.2</ele>
        <time>2020-01-29T12:04:51Z</time>
      </trkpt>
      <trkpt lat="56.870859073846" lon="14.792793365154">
        <ele>176.8</ele>
        <time>2020-01-29T12:04:56Z</time>
      </trkpt>
      <trkpt lat="56.870676096969" lon="14.792692614716">
        <ele>176.2</ele>
        <time>2020-01-29T12:05:03Z</time>
      </trkpt>
      <trkpt lat="56.8706215308" lon="14.792660763496">
        <ele>175.8</ele>
        <time>2020-01-29T12:05:05Z</time>
      </trkpt>
      <trkpt lat="56.870595127815" lon="14.792641736583">
        <ele>175.6</ele>
        <time>2020-01-29T12:05:06Z</time>
      </trkpt>
      <trkpt lat="56.870416844802" lon="14.79252967058">
        <ele>175</ele>
        <time>2020-01-29T12:05:13Z</time>
      </trkpt>
      <trkpt lat="56.870228084414" lon="14.792421963165">
        <ele>174.8</ele>
        <time>2020-01-29T12:05:20Z</time>
      </trkpt>
      <trkpt lat="56.870121466646" lon="14.792349878825">
        <ele>174.2</ele>
        <time>2020-01-29T12:05:24Z</time>
      </trkpt>
      <trkpt lat="56.870093806376" lon="14.792329762265">
        <ele>174</ele>
        <time>2020-01-29T12:05:25Z</time>
      </trkpt>
      <trkpt lat="56.869908817843" lon="14.792170757622">
        <ele>173.8</ele>
        <time>2020-01-29T12:05:32Z</time>
      </trkpt>
      <trkpt lat="56.869791387424" lon="14.791915780224">
        <ele>173.6</ele>
        <time>2020-01-29T12:05:39Z</time>
      </trkpt>
      <trkpt lat="56.869669011684" lon="14.791646134501">
        <ele>173.6</ele>
        <time>2020-01-29T12:05:46Z</time>
      </trkpt>
      <trkpt lat="56.8696492304" lon="14.791608835046">
        <ele>173</ele>
        <time>2020-01-29T12:05:47Z</time>
      </trkpt>
      <trkpt lat="56.869568261246" lon="14.791444968901">
        <ele>172</ele>
        <time>2020-01-29T12:05:51Z</time>
      </trkpt>
      <trkpt lat="56.869424679299" lon="14.791207425855">
        <ele>171</ele>
        <time>2020-01-29T12:05:58Z</time>
      </trkpt>
      <trkpt lat="56.869247653571" lon="14.791020006571">
        <ele>169.8</ele>
        <time>2020-01-29T12:06:04Z</time>
      </trkpt>
      <trkpt lat="56.869084038883" lon="14.790804340284">
        <ele>169.4</ele>
        <time>2020-01-29T12:06:10Z</time>
      </trkpt>
      <trkpt lat="56.868951101949" lon="14.790571407283">
        <ele>170.8</ele>
        <time>2020-01-29T12:06:18Z</time>
      </trkpt>
      <trkpt lat="56.868873820831" lon="14.79042329911">
        <ele>172.2</ele>
        <time>2020-01-29T12:06:24Z</time>
      </trkpt>
      <trkpt lat="56.868841299059" lon="14.790334870065">
        <ele>173.6</ele>
        <time>2020-01-29T12:06:27Z</time>
      </trkpt>
      <trkpt lat="56.868804670156" lon="14.790259097689">
        <ele>174.6</ele>
        <time>2020-01-29T12:06:30Z</time>
      </trkpt>
      <trkpt lat="56.868735016567" lon="14.790132950094">
        <ele>176</ele>
        <time>2020-01-29T12:06:34Z</time>
      </trkpt>
      <trkpt lat="56.868703668261" lon="14.790098668123">
        <ele>177</ele>
        <time>2020-01-29T12:06:37Z</time>
      </trkpt>
      <trkpt lat="56.868630661912" lon="14.790011915458">
        <ele>178.2</ele>
        <time>2020-01-29T12:06:42Z</time>
      </trkpt>
      <trkpt lat="56.868495964779" lon="14.789784011597">
        <ele>179.2</ele>
        <time>2020-01-29T12:06:49Z</time>
      </trkpt>
      <trkpt lat="56.868325225476" lon="14.789653253957">
        <ele>178.8</ele>
        <time>2020-01-29T12:06:58Z</time>
      </trkpt>
      <trkpt lat="56.868287842202" lon="14.789640010555">
        <ele>179</ele>
        <time>2020-01-29T12:07:00Z</time>
      </trkpt>
      <trkpt lat="56.868107128438" lon="14.789656187622">
        <ele>178.8</ele>
        <time>2020-01-29T12:07:07Z</time>
      </trkpt>
      <trkpt lat="56.867914093281" lon="14.789701449882">
        <ele>178.2</ele>
        <time>2020-01-29T12:07:14Z</time>
      </trkpt>
      <trkpt lat="56.867881152414" lon="14.789710083239">
        <ele>178</ele>
        <time>2020-01-29T12:07:15Z</time>
      </trkpt>
      <trkpt lat="56.867709574921" lon="14.789816198093">
        <ele>177.6</ele>
        <time>2020-01-29T12:07:20Z</time>
      </trkpt>
      <trkpt lat="56.867599604393" lon="14.789845702381">
        <ele>176.6</ele>
        <time>2020-01-29T12:07:23Z</time>
      </trkpt>
      <trkpt lat="56.867462057414" lon="14.789776635525">
        <ele>175.4</ele>
        <time>2020-01-29T12:07:27Z</time>
      </trkpt>
      <trkpt lat="56.867346638651" lon="14.789573290631">
        <ele>174.4</ele>
        <time>2020-01-29T12:07:32Z</time>
      </trkpt>
      <trkpt lat="56.86723608139" lon="14.78926994967">
        <ele>173.6</ele>
        <time>2020-01-29T12:07:38Z</time>
      </trkpt>
      <trkpt lat="56.86723608139" lon="14.78926994967">
        <ele>173.4</ele>
        <time>2020-01-29T12:07:39Z</time>
      </trkpt>
      <trkpt lat="56.867146311241" lon="14.788957053343">
        <ele>172.6</ele>
        <time>2020-01-29T12:07:42Z</time>
      </trkpt>
      <trkpt lat="56.867087051208" lon="14.78880894517">
        <ele>172.2</ele>
        <time>2020-01-29T12:07:45Z</time>
      </trkpt>
      <trkpt lat="56.866955958292" lon="14.788580454576">
        <ele>172</ele>
        <time>2020-01-29T12:07:53Z</time>
      </trkpt>
      <trkpt lat="56.866846993592" lon="14.788288345361">
        <ele>171.2</ele>
        <time>2020-01-29T12:08:01Z</time>
      </trkpt>
      <trkpt lat="56.866788152654" lon="14.788147864717">
        <ele>172.4</ele>
        <time>2020-01-29T12:08:05Z</time>
      </trkpt>
      <trkpt lat="56.866715900676" lon="14.788095980756">
        <ele>171.8</ele>
        <time>2020-01-29T12:08:08Z</time>
      </trkpt>
      <trkpt lat="56.866635685893" lon="14.788091789806">
        <ele>171</ele>
        <time>2020-01-29T12:08:11Z</time>
      </trkpt>
      <trkpt lat="56.866549184685" lon="14.78801350286">
        <ele>171</ele>
        <time>2020-01-29T12:08:14Z</time>
      </trkpt>
      <trkpt lat="56.866515824723" lon="14.787925241453">
        <ele>171</ele>
        <time>2020-01-29T12:08:16Z</time>
      </trkpt>
      <trkpt lat="56.86643644813" lon="14.787584601037">
        <ele>170.2</ele>
        <time>2020-01-29T12:08:25Z</time>
      </trkpt>
      <trkpt lat="56.866412056801" lon="14.787431547543">
        <ele>170</ele>
        <time>2020-01-29T12:08:28Z</time>
      </trkpt>
      <trkpt lat="56.86641968433" lon="14.787148658418">
        <ele>169</ele>
        <time>2020-01-29T12:08:34Z</time>
      </trkpt>
      <trkpt lat="56.866355814252" lon="14.786782620845">
        <ele>169</ele>
        <time>2020-01-29T12:08:42Z</time>
      </trkpt>
      <trkpt lat="56.866316419322" lon="14.786456229659">
        <ele>169</ele>
        <time>2020-01-29T12:08:48Z</time>
      </trkpt>
      <trkpt lat="56.866312898924" lon="14.786173089077">
        <ele>168.8</ele>
        <time>2020-01-29T12:08:53Z</time>
      </trkpt>
      <trkpt lat="56.866290686889" lon="14.785764806728">
        <ele>168</ele>
        <time>2020-01-29T12:08:59Z</time>
      </trkpt>
      <trkpt lat="56.866239305842" lon="14.785344538262">
        <ele>168.2</ele>
        <time>2020-01-29T12:09:04Z</time>
      </trkpt>
      <trkpt lat="56.866254896176" lon="14.785008004977">
        <ele>168.2</ele>
        <time>2020-01-29T12:09:10Z</time>
      </trkpt>
      <trkpt lat="56.866375092622" lon="14.784758056719">
        <ele>168</ele>
        <time>2020-01-29T12:09:16Z</time>
      </trkpt>
      <trkpt lat="56.866559159146" lon="14.784572565272">
        <ele>168</ele>
        <time>2020-01-29T12:09:24Z</time>
      </trkpt>
      <trkpt lat="56.866635769712" lon="14.784560411517">
        <ele>167.8</ele>
        <time>2020-01-29T12:09:26Z</time>
      </trkpt>
      <trkpt lat="56.866836348579" lon="14.784542055156">
        <ele>168</ele>
        <time>2020-01-29T12:09:32Z</time>
      </trkpt>
      <trkpt lat="56.867030221926" lon="14.784519759302">
        <ele>167.8</ele>
        <time>2020-01-29T12:09:38Z</time>
      </trkpt>
      <trkpt lat="56.867167517448" lon="14.784430408248">
        <ele>167.6</ele>
        <time>2020-01-29T12:09:42Z</time>
      </trkpt>
      <trkpt lat="56.867183359239" lon="14.78434809799">
        <ele>167.8</ele>
        <time>2020-01-29T12:09:45Z</time>
      </trkpt>
      <trkpt lat="56.867161147204" lon="14.784145591286">
        <ele>168.4</ele>
        <time>2020-01-29T12:09:50Z</time>
      </trkpt>
      <trkpt lat="56.867053188332" lon="14.78383344933">
        <ele>168.6</ele>
        <time>2020-01-29T12:09:57Z</time>
      </trkpt>
      <trkpt lat="56.866973644101" lon="14.783546872169">
        <ele>169</ele>
        <time>2020-01-29T12:10:03Z</time>
      </trkpt>
      <trkpt lat="56.866894854241" lon="14.783250320547">
        <ele>169.6</ele>
        <time>2020-01-29T12:10:10Z</time>
      </trkpt>
      <trkpt lat="56.866857470967" lon="14.78303716883">
        <ele>170</ele>
        <time>2020-01-29T12:10:14Z</time>
      </trkpt>
      <trkpt lat="56.866828134317" lon="14.782700887002">
        <ele>170.4</ele>
        <time>2020-01-29T12:10:20Z</time>
      </trkpt>
      <trkpt lat="56.866822350806" lon="14.782431073641">
        <ele>171</ele>
        <time>2020-01-29T12:10:25Z</time>
      </trkpt>
      <trkpt lat="56.866834420742" lon="14.782259831424">
        <ele>171</ele>
        <time>2020-01-29T12:10:28Z</time>
      </trkpt>
      <trkpt lat="56.866865685229" lon="14.781926231804">
        <ele>171.2</ele>
        <time>2020-01-29T12:10:34Z</time>
      </trkpt>
      <trkpt lat="56.866866691057" lon="14.781586345759">
        <ele>171.6</ele>
        <time>2020-01-29T12:10:40Z</time>
      </trkpt>
      <trkpt lat="56.866890076558" lon="14.781239335099">
        <ele>172</ele>
        <time>2020-01-29T12:10:45Z</time>
      </trkpt>
      <trkpt lat="56.866935422637" lon="14.780983435692">
        <ele>172</ele>
        <time>2020-01-29T12:10:49Z</time>
      </trkpt>
      <trkpt lat="56.866987809512" lon="14.780664420578">
        <ele>172</ele>
        <time>2020-01-29T12:10:54Z</time>
      </trkpt>
      <trkpt lat="56.867014128678" lon="14.780289833467">
        <ele>172.6</ele>
        <time>2020-01-29T12:11:01Z</time>
      </trkpt>
      <trkpt lat="56.867038687645" lon="14.779935698192">
        <ele>172.6</ele>
        <time>2020-01-29T12:11:08Z</time>
      </trkpt>
      <trkpt lat="56.866980349621" lon="14.779568654791">
        <ele>172.6</ele>
        <time>2020-01-29T12:11:13Z</time>
      </trkpt>
      <trkpt lat="56.866914803163" lon="14.779162467917">
        <ele>172.6</ele>
        <time>2020-01-29T12:11:20Z</time>
      </trkpt>
      <trkpt lat="56.866867613066" lon="14.778819648207">
        <ele>172.8</ele>
        <time>2020-01-29T12:11:28Z</time>
      </trkpt>
      <trkpt lat="56.866814388001" lon="14.778406671994">
        <ele>173</ele>
        <time>2020-01-29T12:11:34Z</time>
      </trkpt>
      <trkpt lat="56.866804581178" lon="14.778330648161">
        <ele>173.2</ele>
        <time>2020-01-29T12:11:35Z</time>
      </trkpt>
      <trkpt lat="56.866800054952" lon="14.778268035368">
        <ele>173.4</ele>
        <time>2020-01-29T12:11:36Z</time>
      </trkpt>
      <trkpt lat="56.866798127115" lon="14.777902835985">
        <ele>173.2</ele>
        <time>2020-01-29T12:11:43Z</time>
      </trkpt>
      <trkpt lat="56.866865685229" lon="14.77759815392">
        <ele>173.2</ele>
        <time>2020-01-29T12:11:49Z</time>
      </trkpt>
      <trkpt lat="56.866961238889" lon="14.777301769936">
        <ele>173</ele>
        <time>2020-01-29T12:11:55Z</time>
      </trkpt>
      <trkpt lat="56.86702318113" lon="14.776983257736">
        <ele>172.4</ele>
        <time>2020-01-29T12:12:01Z</time>
      </trkpt>
      <trkpt lat="56.86713801316" lon="14.776722915922">
        <ele>172.6</ele>
        <time>2020-01-29T12:12:05Z</time>
      </trkpt>
      <trkpt lat="56.867228370042" lon="14.776347490621">
        <ele>172.6</ele>
        <time>2020-01-29T12:12:11Z</time>
      </trkpt>
      <trkpt lat="56.867263993117" lon="14.775936106969">
        <ele>172.4</ele>
        <time>2020-01-29T12:12:18Z</time>
      </trkpt>
      <trkpt lat="56.86724613967" lon="14.77574156307">
        <ele>172.2</ele>
        <time>2020-01-29T12:12:22Z</time>
      </trkpt>
      <trkpt lat="56.867207163835" lon="14.775386002872">
        <ele>172.6</ele>
        <time>2020-01-29T12:12:28Z</time>
      </trkpt>
      <trkpt lat="56.867167433629" lon="14.775044440447">
        <ele>172.4</ele>
        <time>2020-01-29T12:12:34Z</time>
      </trkpt>
      <trkpt lat="56.867173384778" lon="14.774989455183">
        <ele>172.4</ele>
        <time>2020-01-29T12:12:35Z</time>
      </trkpt>
      <trkpt lat="56.867343034434" lon="14.774862469398">
        <ele>172.2</ele>
        <time>2020-01-29T12:12:41Z</time>
      </trkpt>
      <trkpt lat="56.867534644668" lon="14.774878981741">
        <ele>172.2</ele>
        <time>2020-01-29T12:12:48Z</time>
      </trkpt>
      <trkpt lat="56.867705216333" lon="14.774917035567">
        <ele>173</ele>
        <time>2020-01-29T12:12:54Z</time>
      </trkpt>
      <trkpt lat="56.867910572883" lon="14.774936984489">
        <ele>173.2</ele>
        <time>2020-01-29T12:13:01Z</time>
      </trkpt>
      <trkpt lat="56.868105787334" lon="14.774926674752">
        <ele>174</ele>
        <time>2020-01-29T12:13:08Z</time>
      </trkpt>
      <trkpt lat="56.868233108395" lon="14.774947126588">
        <ele>174.4</ele>
        <time>2020-01-29T12:13:11Z</time>
      </trkpt>
      <trkpt lat="56.86843217852" lon="14.774977301428">
        <ele>174.6</ele>
        <time>2020-01-29T12:13:17Z</time>
      </trkpt>
      <trkpt lat="56.868651700481" lon="14.775015439073">
        <ele>174.8</ele>
        <time>2020-01-29T12:13:23Z</time>
      </trkpt>
      <trkpt lat="56.8688361861" lon="14.775050726872">
        <ele>175.2</ele>
        <time>2020-01-29T12:13:29Z</time>
      </trkpt>
      <trkpt lat="56.86903902808" lon="14.775070256699">
        <ele>175</ele>
        <time>2020-01-29T12:13:34Z</time>
      </trkpt>
      <trkpt lat="56.869259891145" lon="14.775104203394">
        <ele>174.8</ele>
        <time>2020-01-29T12:13:41Z</time>
      </trkpt>
      <trkpt lat="56.869439934357" lon="14.775116524787">
        <ele>174.8</ele>
        <time>2020-01-29T12:13:47Z</time>
      </trkpt>
      <trkpt lat="56.869645961459" lon="14.775138653003">
        <ele>175.2</ele>
        <time>2020-01-29T12:13:54Z</time>
      </trkpt>
      <trkpt lat="56.869832542553" lon="14.775150974396">
        <ele>175</ele>
        <time>2020-01-29T12:14:00Z</time>
      </trkpt>
      <trkpt lat="56.870042425329" lon="14.775188190032">
        <ele>174.8</ele>
        <time>2020-01-29T12:14:06Z</time>
      </trkpt>
      <trkpt lat="56.870144684509" lon="14.775187351842">
        <ele>175.4</ele>
        <time>2020-01-29T12:14:10Z</time>
      </trkpt>
      <trkpt lat="56.870301761315" lon="14.775200259968">
        <ele>176.8</ele>
        <time>2020-01-29T12:14:14Z</time>
      </trkpt>
      <trkpt lat="56.870494880291" lon="14.775256334879">
        <ele>176.8</ele>
        <time>2020-01-29T12:14:20Z</time>
      </trkpt>
      <trkpt lat="56.870670229639" lon="14.775298328198">
        <ele>177.8</ele>
        <time>2020-01-29T12:14:27Z</time>
      </trkpt>
      <trkpt lat="56.870893020541" lon="14.775346524123">
        <ele>177.8</ele>
        <time>2020-01-29T12:14:34Z</time>
      </trkpt>
      <trkpt lat="56.871099550557" lon="14.775330598513">
        <ele>178.4</ele>
        <time>2020-01-29T12:14:39Z</time>
      </trkpt>
      <trkpt lat="56.871288981497" lon="14.775325653192">
        <ele>178.2</ele>
        <time>2020-01-29T12:14:44Z</time>
      </trkpt>
      <trkpt lat="56.871348995901" lon="14.775277876362">
        <ele>178</ele>
        <time>2020-01-29T12:14:47Z</time>
      </trkpt>
      <trkpt lat="56.871294429732" lon="14.77494947352">
        <ele>178</ele>
        <time>2020-01-29T12:14:52Z</time>
      </trkpt>
      <trkpt lat="56.871208850533" lon="14.774622998515">
        <ele>178</ele>
        <time>2020-01-29T12:14:58Z</time>
      </trkpt>
      <trkpt lat="56.871122600782" lon="14.774313035853">
        <ele>177.4</ele>
        <time>2020-01-29T12:15:05Z</time>
      </trkpt>
      <trkpt lat="56.87103811123" lon="14.773992344359">
        <ele>177.6</ele>
        <time>2020-01-29T12:15:10Z</time>
      </trkpt>
      <trkpt lat="56.87102302381" lon="14.773937694371">
        <ele>177.6</ele>
        <time>2020-01-29T12:15:11Z</time>
      </trkpt>
      <trkpt lat="56.870933505118" lon="14.773610800271">
        <ele>177.4</ele>
        <time>2020-01-29T12:15:17Z</time>
      </trkpt>
      <trkpt lat="56.870838538191" lon="14.773305363835">
        <ele>178</ele>
        <time>2020-01-29T12:15:23Z</time>
      </trkpt>
      <trkpt lat="56.870751534069" lon="14.772984085608">
        <ele>178.8</ele>
        <time>2020-01-29T12:15:30Z</time>
      </trkpt>
      <trkpt lat="56.870667044517" lon="14.772650402169">
        <ele>179.4</ele>
        <time>2020-01-29T12:15:36Z</time>
      </trkpt>
      <trkpt lat="56.870579286024" lon="14.772347228846">
        <ele>179.2</ele>
        <time>2020-01-29T12:15:41Z</time>
      </trkpt>
      <trkpt lat="56.870477697396" lon="14.772018574547">
        <ele>179.4</ele>
        <time>2020-01-29T12:15:48Z</time>
      </trkpt>
      <trkpt lat="56.870289356103" lon="14.772143632495">
        <ele>179.4</ele>
        <time>2020-01-29T12:15:54Z</time>
      </trkpt>
      <trkpt lat="56.870120628456" lon="14.77225888362">
        <ele>178.4</ele>
        <time>2020-01-29T12:16:00Z</time>
      </trkpt>
      <trkpt lat="56.870046783917" lon="14.772323927164">
        <ele>177.8</ele>
        <time>2020-01-29T12:16:03Z</time>
      </trkpt>
      <trkpt lat="56.869854922226" lon="14.772440938488">
        <ele>177.6</ele>
        <time>2020-01-29T12:16:09Z</time>
      </trkpt>
      <trkpt lat="56.869667419123" lon="14.772509334792">
        <ele>176.8</ele>
        <time>2020-01-29T12:16:16Z</time>
      </trkpt>
      <trkpt lat="56.869667419123" lon="14.772509334792">
        <ele>176.6</ele>
        <time>2020-01-29T12:16:17Z</time>
      </trkpt>
      <trkpt lat="56.869466672618" lon="14.772556105794">
        <ele>175.8</ele>
        <time>2020-01-29T12:16:22Z</time>
      </trkpt>
      <trkpt lat="56.869437252149" lon="14.772570103567">
        <ele>175.6</ele>
        <time>2020-01-29T12:16:23Z</time>
      </trkpt>
      <trkpt lat="56.869232482332" lon="14.772680912285">
        <ele>174.4</ele>
        <time>2020-01-29T12:16:29Z</time>
      </trkpt>
      <trkpt lat="56.8690792612" lon="14.772725252536">
        <ele>173.6</ele>
        <time>2020-01-29T12:16:34Z</time>
      </trkpt>
      <trkpt lat="56.869042297021" lon="14.772721480681">
        <ele>173.4</ele>
        <time>2020-01-29T12:16:35Z</time>
      </trkpt>
      <trkpt lat="56.868845741466" lon="14.772765318018">
        <ele>172.2</ele>
        <time>2020-01-29T12:16:39Z</time>
      </trkpt>
      <trkpt lat="56.868655220879" lon="14.772849639932">
        <ele>172.2</ele>
        <time>2020-01-29T12:16:45Z</time>
      </trkpt>
      <trkpt lat="56.868627895885" lon="14.772847879733">
        <ele>172.2</ele>
        <time>2020-01-29T12:16:46Z</time>
      </trkpt>
      <trkpt lat="56.868440644239" lon="14.772961538297">
        <ele>171.8</ele>
        <time>2020-01-29T12:16:53Z</time>
      </trkpt>
      <trkpt lat="56.868260433389" lon="14.773097576534">
        <ele>171.2</ele>
        <time>2020-01-29T12:16:59Z</time>
      </trkpt>
      <trkpt lat="56.868091538104" lon="14.773274266986">
        <ele>171.6</ele>
        <time>2020-01-29T12:17:04Z</time>
      </trkpt>
      <trkpt lat="56.867973604771" lon="14.773413406526">
        <ele>171</ele>
        <time>2020-01-29T12:17:08Z</time>
      </trkpt>
      <trkpt lat="56.867801775821" lon="14.773530334031">
        <ele>171.8</ele>
        <time>2020-01-29T12:17:13Z</time>
      </trkpt>
      <trkpt lat="56.867601196954" lon="14.77356478364">
        <ele>171.2</ele>
        <time>2020-01-29T12:17:20Z</time>
      </trkpt>
      <trkpt lat="56.867399779897" lon="14.773560508871">
        <ele>171.2</ele>
        <time>2020-01-29T12:17:26Z</time>
      </trkpt>
      <trkpt lat="56.867225436377" lon="14.773516084801">
        <ele>171.2</ele>
        <time>2020-01-29T12:17:32Z</time>
      </trkpt>
      <trkpt lat="56.866978170327" lon="14.773438887502">
        <ele>171</ele>
        <time>2020-01-29T12:17:38Z</time>
      </trkpt>
      <trkpt lat="56.866783542609" lon="14.773358421262">
        <ele>170.8</ele>
        <time>2020-01-29T12:17:45Z</time>
      </trkpt>
      <trkpt lat="56.866609031451" lon="14.773132445238">
        <ele>171.4</ele>
        <time>2020-01-29T12:17:50Z</time>
      </trkpt>
      <trkpt lat="56.866541389518" lon="14.772815860875">
        <ele>171.4</ele>
        <time>2020-01-29T12:17:57Z</time>
      </trkpt>
      <trkpt lat="56.866477016526" lon="14.772477567391">
        <ele>171</ele>
        <time>2020-01-29T12:18:04Z</time>
      </trkpt>
      <trkpt lat="56.866345420696" lon="14.772240862535">
        <ele>170.6</ele>
        <time>2020-01-29T12:18:08Z</time>
      </trkpt>
      <trkpt lat="56.866172921194" lon="14.772048581749">
        <ele>170.8</ele>
        <time>2020-01-29T12:18:16Z</time>
      </trkpt>
      <trkpt lat="56.865986256281" lon="14.771801399518">
        <ele>171</ele>
        <time>2020-01-29T12:18:22Z</time>
      </trkpt>
      <trkpt lat="56.865819875566" lon="14.771619847564">
        <ele>170.6</ele>
        <time>2020-01-29T12:18:28Z</time>
      </trkpt>
      <trkpt lat="56.865669336642" lon="14.771407031123">
        <ele>170.4</ele>
        <time>2020-01-29T12:18:32Z</time>
      </trkpt>
      <trkpt lat="56.865611836808" lon="14.771337545172">
        <ele>170.2</ele>
        <time>2020-01-29T12:18:34Z</time>
      </trkpt>
      <trkpt lat="56.865533130767" lon="14.771249116127">
        <ele>170</ele>
        <time>2020-01-29T12:18:37Z</time>
      </trkpt>
      <trkpt lat="56.865355853582" lon="14.771103187248">
        <ele>169.6</ele>
        <time>2020-01-29T12:18:44Z</time>
      </trkpt>
      <trkpt lat="56.865152173412" lon="14.771056164789">
        <ele>170.2</ele>
        <time>2020-01-29T12:18:52Z</time>
      </trkpt>
      <trkpt lat="56.864973638942" lon="14.771091368769">
        <ele>170</ele>
        <time>2020-01-29T12:18:58Z</time>
      </trkpt>
      <trkpt lat="56.864786806391" lon="14.771168733706">
        <ele>171</ele>
        <time>2020-01-29T12:19:03Z</time>
      </trkpt>
      <trkpt lat="56.864584467325" lon="14.771288008143">
        <ele>170.8</ele>
        <time>2020-01-29T12:19:09Z</time>
      </trkpt>
      <trkpt lat="56.864388414684" lon="14.771347687271">
        <ele>171</ele>
        <time>2020-01-29T12:19:15Z</time>
      </trkpt>
      <trkpt lat="56.864334183791" lon="14.771328073625">
        <ele>171</ele>
        <time>2020-01-29T12:19:17Z</time>
      </trkpt>
      <trkpt lat="56.864258243777" lon="14.771255402552">
        <ele>172.2</ele>
        <time>2020-01-29T12:19:21Z</time>
      </trkpt>
      <trkpt lat="56.864082894429" lon="14.771091536407">
        <ele>172.4</ele>
        <time>2020-01-29T12:19:28Z</time>
      </trkpt>
      <trkpt lat="56.863891284195" lon="14.771024145931">
        <ele>172</ele>
        <time>2020-01-29T12:19:34Z</time>
      </trkpt>
      <trkpt lat="56.863723059462" lon="14.770865979478">
        <ele>171.6</ele>
        <time>2020-01-29T12:19:39Z</time>
      </trkpt>
      <trkpt lat="56.863645359249" lon="14.770811664766">
        <ele>171.2</ele>
        <time>2020-01-29T12:19:41Z</time>
      </trkpt>
      <trkpt lat="56.863461963277" lon="14.770664394783">
        <ele>171.2</ele>
        <time>2020-01-29T12:19:47Z</time>
      </trkpt>
      <trkpt lat="56.863282925893" lon="14.770710327595">
        <ele>171.8</ele>
        <time>2020-01-29T12:19:53Z</time>
      </trkpt>
      <trkpt lat="56.863102715043" lon="14.77082474053">
        <ele>171.4</ele>
        <time>2020-01-29T12:19:59Z</time>
      </trkpt>
      <trkpt lat="56.862922168917" lon="14.770915516507">
        <ele>171.6</ele>
        <time>2020-01-29T12:20:05Z</time>
      </trkpt>
      <trkpt lat="56.862732402701" lon="14.771018781515">
        <ele>171.8</ele>
        <time>2020-01-29T12:20:10Z</time>
      </trkpt>
      <trkpt lat="56.862538948449" lon="14.771062870309">
        <ele>171.4</ele>
        <time>2020-01-29T12:20:17Z</time>
      </trkpt>
      <trkpt lat="56.862336190288" lon="14.77110721056">
        <ele>172.6</ele>
        <time>2020-01-29T12:20:24Z</time>
      </trkpt>
      <trkpt lat="56.862294448426" lon="14.771122717075">
        <ele>173</ele>
        <time>2020-01-29T12:20:26Z</time>
      </trkpt>
      <trkpt lat="56.862184058803" lon="14.771139397056">
        <ele>173.8</ele>
        <time>2020-01-29T12:20:30Z</time>
      </trkpt>
      <trkpt lat="56.862020192658" lon="14.771192286845">
        <ele>174.8</ele>
        <time>2020-01-29T12:20:34Z</time>
      </trkpt>
      <trkpt lat="56.861824140017" lon="14.771179462538">
        <ele>175.6</ele>
        <time>2020-01-29T12:20:41Z</time>
      </trkpt>
      <trkpt lat="56.861636804552" lon="14.77119354413">
        <ele>174.8</ele>
        <time>2020-01-29T12:20:47Z</time>
      </trkpt>
      <trkpt lat="56.861443685576" lon="14.771112491157">
        <ele>173.8</ele>
        <time>2020-01-29T12:20:52Z</time>
      </trkpt>
      <trkpt lat="56.861338492731" lon="14.771076616625">
        <ele>172.8</ele>
        <time>2020-01-29T12:20:55Z</time>
      </trkpt>
      <trkpt lat="56.861188959635" lon="14.771050297459">
        <ele>171.6</ele>
        <time>2020-01-29T12:20:59Z</time>
      </trkpt>
      <trkpt lat="56.861021656911" lon="14.77089095754">
        <ele>170.8</ele>
        <time>2020-01-29T12:21:04Z</time>
      </trkpt>
      <trkpt lat="56.860983100171" lon="14.770875283387">
        <ele>170.6</ele>
        <time>2020-01-29T12:21:05Z</time>
      </trkpt>
      <trkpt lat="56.860813701972" lon="14.770743855195">
        <ele>170</ele>
        <time>2020-01-29T12:21:10Z</time>
      </trkpt>
      <trkpt lat="56.860647405076" lon="14.770617288505">
        <ele>169.8</ele>
        <time>2020-01-29T12:21:16Z</time>
      </trkpt>
      <trkpt lat="56.860617816969" lon="14.770615695944">
        <ele>169.6</ele>
        <time>2020-01-29T12:21:17Z</time>
      </trkpt>
      <trkpt lat="56.860528298277" lon="14.770559621033">
        <ele>169.2</ele>
        <time>2020-01-29T12:21:20Z</time>
      </trkpt>
      <trkpt lat="56.860451352435" lon="14.770585940199">
        <ele>169</ele>
        <time>2020-01-29T12:21:23Z</time>
      </trkpt>
      <trkpt lat="56.860312799628" lon="14.770781909021">
        <ele>170.2</ele>
        <time>2020-01-29T12:21:31Z</time>
      </trkpt>
      <trkpt lat="56.860280529313" lon="14.770829015299">
        <ele>170</ele>
        <time>2020-01-29T12:21:33Z</time>
      </trkpt>
      <trkpt lat="56.860237865442" lon="14.770936135981">
        <ele>170</ele>
        <time>2020-01-29T12:21:35Z</time>
      </trkpt>
      <trkpt lat="56.860176342296" lon="14.771261353701">
        <ele>170.2</ele>
        <time>2020-01-29T12:21:42Z</time>
      </trkpt>
      <trkpt lat="56.860164523817" lon="14.771292953464">
        <ele>170.4</ele>
        <time>2020-01-29T12:21:43Z</time>
      </trkpt>
      <trkpt lat="56.860084979586" lon="14.771596462063">
        <ele>170.6</ele>
        <time>2020-01-29T12:21:47Z</time>
      </trkpt>
      <trkpt lat="56.860070646537" lon="14.771737445621">
        <ele>170.6</ele>
        <time>2020-01-29T12:21:49Z</time>
      </trkpt>
      <trkpt lat="56.860082381197" lon="14.772162659408">
        <ele>171.8</ele>
        <time>2020-01-29T12:21:56Z</time>
      </trkpt>
      <trkpt lat="56.860114064779" lon="14.772500114702">
        <ele>172.4</ele>
        <time>2020-01-29T12:22:02Z</time>
      </trkpt>
      <trkpt lat="56.860122027584" lon="14.772678230077">
        <ele>173</ele>
        <time>2020-01-29T12:22:05Z</time>
      </trkpt>
      <trkpt lat="56.860191429716" lon="14.773054074473">
        <ele>172.4</ele>
        <time>2020-01-29T12:22:11Z</time>
      </trkpt>
      <trkpt lat="56.860285558453" lon="14.773366048791">
        <ele>172.2</ele>
        <time>2020-01-29T12:22:17Z</time>
      </trkpt>
      <trkpt lat="56.860360241182" lon="14.773648686459">
        <ele>171.6</ele>
        <time>2020-01-29T12:22:23Z</time>
      </trkpt>
      <trkpt lat="56.860490747365" lon="14.7738782667">
        <ele>171</ele>
        <time>2020-01-29T12:22:30Z</time>
      </trkpt>
      <trkpt lat="56.860669198016" lon="14.773883212021">
        <ele>170.8</ele>
        <time>2020-01-29T12:22:36Z</time>
      </trkpt>
      <trkpt lat="56.860828537935" lon="14.773801739953">
        <ele>170.8</ele>
        <time>2020-01-29T12:22:44Z</time>
      </trkpt>
      <trkpt lat="56.861036325236" lon="14.773865777669">
        <ele>171</ele>
        <time>2020-01-29T12:22:52Z</time>
      </trkpt>
      <trkpt lat="56.861197425354" lon="14.774144392025">
        <ele>171</ele>
        <time>2020-01-29T12:22:57Z</time>
      </trkpt>
      <trkpt lat="56.861302366742" lon="14.774422922562">
        <ele>171</ele>
        <time>2020-01-29T12:23:03Z</time>
      </trkpt>
      <trkpt lat="56.861377803842" lon="14.774589806191">
        <ele>171.2</ele>
        <time>2020-01-29T12:23:06Z</time>
      </trkpt>
      <trkpt lat="56.86147520152" lon="14.774927345304">
        <ele>171.2</ele>
        <time>2020-01-29T12:23:12Z</time>
      </trkpt>
      <trkpt lat="56.861564720212" lon="14.775217107587">
        <ele>172</ele>
        <time>2020-01-29T12:23:18Z</time>
      </trkpt>
      <trkpt lat="56.861661614976" lon="14.775350044521">
        <ele>172.6</ele>
        <time>2020-01-29T12:23:22Z</time>
      </trkpt>
      <trkpt lat="56.86184400512" lon="14.775549701379">
        <ele>173</ele>
        <time>2020-01-29T12:23:28Z</time>
      </trkpt>
      <trkpt lat="56.861917514383" lon="14.775774336299">
        <ele>173.6</ele>
        <time>2020-01-29T12:23:32Z</time>
      </trkpt>
      <trkpt lat="56.86197560095" lon="14.776134003628">
        <ele>173.6</ele>
        <time>2020-01-29T12:23:37Z</time>
      </trkpt>
      <trkpt lat="56.862025976169" lon="14.776468022343">
        <ele>172.8</ele>
        <time>2020-01-29T12:23:43Z</time>
      </trkpt>
      <trkpt lat="56.862034441888" lon="14.7765185652">
        <ele>172.6</ele>
        <time>2020-01-29T12:23:44Z</time>
      </trkpt>
      <trkpt lat="56.862121865105" lon="14.776832718812">
        <ele>171.6</ele>
        <time>2020-01-29T12:23:51Z</time>
      </trkpt>
      <trkpt lat="56.862161176216" lon="14.776964063185">
        <ele>171.6</ele>
        <time>2020-01-29T12:23:54Z</time>
      </trkpt>
      <trkpt lat="56.862292604408" lon="14.777248377233">
        <ele>171</ele>
        <time>2020-01-29T12:24:01Z</time>
      </trkpt>
      <trkpt lat="56.862402742574" lon="14.777522046268">
        <ele>170.6</ele>
        <time>2020-01-29T12:24:08Z</time>
      </trkpt>
      <trkpt lat="56.86253132092" lon="14.777776017838">
        <ele>171.4</ele>
        <time>2020-01-29T12:24:13Z</time>
      </trkpt>
      <trkpt lat="56.862585719451" lon="14.777900572872">
        <ele>171.2</ele>
        <time>2020-01-29T12:24:15Z</time>
      </trkpt>
      <trkpt lat="56.862677585075" lon="14.778183545816">
        <ele>171.4</ele>
        <time>2020-01-29T12:24:20Z</time>
      </trkpt>
      <trkpt lat="56.862794344942" lon="14.778497447971">
        <ele>172</ele>
        <time>2020-01-29T12:24:26Z</time>
      </trkpt>
      <trkpt lat="56.862811946932" lon="14.778607921413">
        <ele>171.6</ele>
        <time>2020-01-29T12:24:28Z</time>
      </trkpt>
      <trkpt lat="56.86292191746" lon="14.778891900185">
        <ele>170.8</ele>
        <time>2020-01-29T12:24:34Z</time>
      </trkpt>
      <trkpt lat="56.86295963601" lon="14.778966582914">
        <ele>170.4</ele>
        <time>2020-01-29T12:24:36Z</time>
      </trkpt>
      <trkpt lat="56.863135236815" lon="14.779103962255">
        <ele>170.6</ele>
        <time>2020-01-29T12:24:43Z</time>
      </trkpt>
      <trkpt lat="56.863316788769" lon="14.779246538374">
        <ele>171</ele>
        <time>2020-01-29T12:24:49Z</time>
      </trkpt>
      <trkpt lat="56.863480654914" lon="14.779397580212">
        <ele>171.4</ele>
        <time>2020-01-29T12:24:53Z</time>
      </trkpt>
      <trkpt lat="56.863670504949" lon="14.779553902647">
        <ele>170.6</ele>
        <time>2020-01-29T12:24:58Z</time>
      </trkpt>
      <trkpt lat="56.863794557069" lon="14.779692371635">
        <ele>169.2</ele>
        <time>2020-01-29T12:25:02Z</time>
      </trkpt>
      <trkpt lat="56.863906371615" lon="14.779876605797">
        <ele>168.2</ele>
        <time>2020-01-29T12:25:07Z</time>
      </trkpt>
      <trkpt lat="56.863981557258" lon="14.77998364266">
        <ele>167.8</ele>
        <time>2020-01-29T12:25:11Z</time>
      </trkpt>
      <trkpt lat="56.864149949629" lon="14.779940727332">
        <ele>167.8</ele>
        <time>2020-01-29T12:25:17Z</time>
      </trkpt>
      <trkpt lat="56.864308702815" lon="14.780192100513">
        <ele>168</ele>
        <time>2020-01-29T12:25:24Z</time>
      </trkpt>
      <trkpt lat="56.864402747733" lon="14.780496531121">
        <ele>168.6</ele>
        <time>2020-01-29T12:25:30Z</time>
      </trkpt>
      <trkpt lat="56.864510790424" lon="14.780812361113">
        <ele>168.6</ele>
        <time>2020-01-29T12:25:36Z</time>
      </trkpt>
      <trkpt lat="56.864641631883" lon="14.781104637966">
        <ele>168.8</ele>
        <time>2020-01-29T12:25:42Z</time>
      </trkpt>
      <trkpt lat="56.864729725652" lon="14.78139180186">
        <ele>169</ele>
        <time>2020-01-29T12:25:47Z</time>
      </trkpt>
      <trkpt lat="56.864876492721" lon="14.78166337542">
        <ele>169.2</ele>
        <time>2020-01-29T12:25:53Z</time>
      </trkpt>
      <trkpt lat="56.864975399141" lon="14.781935870989">
        <ele>169</ele>
        <time>2020-01-29T12:25:58Z</time>
      </trkpt>
      <trkpt lat="56.865076820131" lon="14.782230243317">
        <ele>169.4</ele>
        <time>2020-01-29T12:26:04Z</time>
      </trkpt>
      <trkpt lat="56.865186371564" lon="14.782530985889">
        <ele>170</ele>
        <time>2020-01-29T12:26:10Z</time>
      </trkpt>
      <trkpt lat="56.865268598003" lon="14.782828627158">
        <ele>169.4</ele>
        <time>2020-01-29T12:26:16Z</time>
      </trkpt>
      <trkpt lat="56.865355602125" lon="14.78314697172">
        <ele>168.8</ele>
        <time>2020-01-29T12:26:22Z</time>
      </trkpt>
      <trkpt lat="56.86542391461" lon="14.783392142295">
        <ele>168.2</ele>
        <time>2020-01-29T12:26:26Z</time>
      </trkpt>
      <trkpt lat="56.865523994496" lon="14.783691292306">
        <ele>167.6</ele>
        <time>2020-01-29T12:26:32Z</time>
      </trkpt>
      <trkpt lat="56.865632204825" lon="14.783968481739">
        <ele>167.6</ele>
        <time>2020-01-29T12:26:37Z</time>
      </trkpt>
      <trkpt lat="56.865729686322" lon="14.784246006448">
        <ele>167.2</ele>
        <time>2020-01-29T12:26:42Z</time>
      </trkpt>
      <trkpt lat="56.865799004635" lon="14.784588574701">
        <ele>167.2</ele>
        <time>2020-01-29T12:26:48Z</time>
      </trkpt>
      <trkpt lat="56.865747372131" lon="14.784908260367">
        <ele>166.8</ele>
        <time>2020-01-29T12:26:53Z</time>
      </trkpt>
      <trkpt lat="56.865607897315" lon="14.785142785929">
        <ele>167</ele>
        <time>2020-01-29T12:26:59Z</time>
      </trkpt>
      <trkpt lat="56.865481498263" lon="14.785416874059">
        <ele>166.8</ele>
        <time>2020-01-29T12:27:07Z</time>
      </trkpt>
      <trkpt lat="56.865355015392" lon="14.785699930822">
        <ele>166.4</ele>
        <time>2020-01-29T12:27:13Z</time>
      </trkpt>
      <trkpt lat="56.865227023779" lon="14.786058089409">
        <ele>166.6</ele>
        <time>2020-01-29T12:27:20Z</time>
      </trkpt>
      <trkpt lat="56.865103474573" lon="14.786346007674">
        <ele>167</ele>
        <time>2020-01-29T12:27:26Z</time>
      </trkpt>
      <trkpt lat="56.864962323377" lon="14.786601320348">
        <ele>166.4</ele>
        <time>2020-01-29T12:27:32Z</time>
      </trkpt>
      <trkpt lat="56.864883030603" lon="14.786836935557">
        <ele>166.8</ele>
        <time>2020-01-29T12:27:37Z</time>
      </trkpt>
      <trkpt lat="56.86484388713" lon="14.786968363749">
        <ele>167.6</ele>
        <time>2020-01-29T12:27:40Z</time>
      </trkpt>
      <trkpt lat="56.864802983458" lon="14.787021421176">
        <ele>168</ele>
        <time>2020-01-29T12:27:42Z</time>
      </trkpt>
      <trkpt lat="56.864747243823" lon="14.787008177774">
        <ele>168.4</ele>
        <time>2020-01-29T12:27:46Z</time>
      </trkpt>
      <trkpt lat="56.864720505562" lon="14.787015134751">
        <ele>168.8</ele>
        <time>2020-01-29T12:27:47Z</time>
      </trkpt>
      <trkpt lat="56.86461087031" lon="14.787055116414">
        <ele>169.8</ele>
        <time>2020-01-29T12:27:50Z</time>
      </trkpt>
      <trkpt lat="56.864413560384" lon="14.787110939868">
        <ele>170</ele>
        <time>2020-01-29T12:27:57Z</time>
      </trkpt>
      <trkpt lat="56.864221363417" lon="14.787258042213">
        <ele>169.8</ele>
        <time>2020-01-29T12:28:05Z</time>
      </trkpt>
      <trkpt lat="56.864011648279" lon="14.787395002459">
        <ele>169.6</ele>
        <time>2020-01-29T12:28:12Z</time>
      </trkpt>
      <trkpt lat="56.863919615017" lon="14.787554090921">
        <ele>169.8</ele>
        <time>2020-01-29T12:28:16Z</time>
      </trkpt>
      <trkpt lat="56.863819116036" lon="14.787788700302">
        <ele>171</ele>
        <time>2020-01-29T12:28:21Z</time>
      </trkpt>
      <trkpt lat="56.863803944797" lon="14.78791711101">
        <ele>172</ele>
        <time>2020-01-29T12:28:24Z</time>
      </trkpt>
      <trkpt lat="56.863734794122" lon="14.788258002883">
        <ele>172.8</ele>
        <time>2020-01-29T12:28:30Z</time>
      </trkpt>
      <trkpt lat="56.863625913241" lon="14.788531252823">
        <ele>173</ele>
        <time>2020-01-29T12:28:37Z</time>
      </trkpt>
      <trkpt lat="56.86356313281" lon="14.788702075945">
        <ele>173</ele>
        <time>2020-01-29T12:28:40Z</time>
      </trkpt>
      <trkpt lat="56.863497670171" lon="14.788791762275">
        <ele>173</ele>
        <time>2020-01-29T12:28:42Z</time>
      </trkpt>
      <trkpt lat="56.863462466191" lon="14.788868372841">
        <ele>173.2</ele>
        <time>2020-01-29T12:28:43Z</time>
      </trkpt>
      <trkpt lat="56.863314609475" lon="14.78908973882">
        <ele>172.8</ele>
        <time>2020-01-29T12:28:51Z</time>
      </trkpt>
      <trkpt lat="56.863158789954" lon="14.789301633252">
        <ele>172.6</ele>
        <time>2020-01-29T12:28:57Z</time>
      </trkpt>
      <trkpt lat="56.863005149727" lon="14.789478407523">
        <ele>172.4</ele>
        <time>2020-01-29T12:29:03Z</time>
      </trkpt>
      <trkpt lat="56.862889647145" lon="14.789754591128">
        <ele>173</ele>
        <time>2020-01-29T12:29:08Z</time>
      </trkpt>
      <trkpt lat="56.862862825065" lon="14.78994301624">
        <ele>172.8</ele>
        <time>2020-01-29T12:29:12Z</time>
      </trkpt>
      <trkpt lat="56.862944632409" lon="14.790262282811">
        <ele>174.2</ele>
        <time>2020-01-29T12:29:19Z</time>
      </trkpt>
      <trkpt lat="56.862934993224" lon="14.790648185487">
        <ele>174</ele>
        <time>2020-01-29T12:29:26Z</time>
      </trkpt>
      <trkpt lat="56.862930215541" lon="14.790926632205">
        <ele>173.4</ele>
        <time>2020-01-29T12:29:32Z</time>
      </trkpt>
      <trkpt lat="56.862811108742" lon="14.791234499392">
        <ele>173.8</ele>
        <time>2020-01-29T12:29:38Z</time>
      </trkpt>
      <trkpt lat="56.86269141521" lon="14.791507497875">
        <ele>173.4</ele>
        <time>2020-01-29T12:29:44Z</time>
      </trkpt>
      <trkpt lat="56.862570967307" lon="14.791762056178">
        <ele>173</ele>
        <time>2020-01-29T12:29:50Z</time>
      </trkpt>
      <trkpt lat="56.862514976215" lon="14.791915025853">
        <ele>172.8</ele>
        <time>2020-01-29T12:29:54Z</time>
      </trkpt>
      <trkpt lat="56.862366029852" lon="14.792184671576">
        <ele>172.8</ele>
        <time>2020-01-29T12:30:00Z</time>
      </trkpt>
      <trkpt lat="56.862249102347" lon="14.792454904032">
        <ele>172.4</ele>
        <time>2020-01-29T12:30:06Z</time>
      </trkpt>
      <trkpt lat="56.862180789862" lon="14.792625559516">
        <ele>172.2</ele>
        <time>2020-01-29T12:30:10Z</time>
      </trkpt>
      <trkpt lat="56.862077189578" lon="14.792906939899">
        <ele>172.4</ele>
        <time>2020-01-29T12:30:14Z</time>
      </trkpt>
      <trkpt lat="56.861973254018" lon="14.793185302798">
        <ele>172.2</ele>
        <time>2020-01-29T12:30:20Z</time>
      </trkpt>
      <trkpt lat="56.861898152194" lon="14.793380768706">
        <ele>172.2</ele>
        <time>2020-01-29T12:30:24Z</time>
      </trkpt>
      <trkpt lat="56.861759934663" lon="14.793596434993">
        <ele>172.2</ele>
        <time>2020-01-29T12:30:30Z</time>
      </trkpt>
      <trkpt lat="56.861641330778" lon="14.793853675504">
        <ele>172</ele>
        <time>2020-01-29T12:30:36Z</time>
      </trkpt>
      <trkpt lat="56.861563379108" lon="14.794037742028">
        <ele>172.4</ele>
        <time>2020-01-29T12:30:40Z</time>
      </trkpt>
      <trkpt lat="56.861434465486" lon="14.794293557616">
        <ele>172.4</ele>
        <time>2020-01-29T12:30:45Z</time>
      </trkpt>
      <trkpt lat="56.861302115285" lon="14.794529675739">
        <ele>173</ele>
        <time>2020-01-29T12:30:50Z</time>
      </trkpt>
      <trkpt lat="56.861260876337" lon="14.794598574957">
        <ele>173.2</ele>
        <time>2020-01-29T12:30:52Z</time>
      </trkpt>
      <trkpt lat="56.861120982426" lon="14.7948665443">
        <ele>173</ele>
        <time>2020-01-29T12:30:59Z</time>
      </trkpt>
      <trkpt lat="56.861001121256" lon="14.795152199452">
        <ele>173</ele>
        <time>2020-01-29T12:31:05Z</time>
      </trkpt>
      <trkpt lat="56.860899197352" lon="14.795431735817">
        <ele>173.2</ele>
        <time>2020-01-29T12:31:09Z</time>
      </trkpt>
      <trkpt lat="56.860892827108" lon="14.795580346904">
        <ele>172.8</ele>
        <time>2020-01-29T12:31:12Z</time>
      </trkpt>
      <trkpt lat="56.860917386075" lon="14.795780758133">
        <ele>172</ele>
        <time>2020-01-29T12:31:16Z</time>
      </trkpt>
      <trkpt lat="56.860959463213" lon="14.796093905917">
        <ele>171</ele>
        <time>2020-01-29T12:31:21Z</time>
      </trkpt>
      <trkpt lat="56.861003635826" lon="14.796418620723">
        <ele>169.8</ele>
        <time>2020-01-29T12:31:27Z</time>
      </trkpt>
      <trkpt lat="56.861077564184" lon="14.796678291985">
        <ele>168.8</ele>
        <time>2020-01-29T12:31:33Z</time>
      </trkpt>
      <trkpt lat="56.86116842398" lon="14.796844169786">
        <ele>167.8</ele>
        <time>2020-01-29T12:31:38Z</time>
      </trkpt>
      <trkpt lat="56.861192815309" lon="14.796882726526">
        <ele>167.8</ele>
        <time>2020-01-29T12:31:40Z</time>
      </trkpt>
      <trkpt lat="56.861376546557" lon="14.797076599873">
        <ele>167.4</ele>
        <time>2020-01-29T12:31:47Z</time>
      </trkpt>
      <trkpt lat="56.861552650276" lon="14.797253374144">
        <ele>167.4</ele>
        <time>2020-01-29T12:31:52Z</time>
      </trkpt>
      <trkpt lat="56.861732022936" lon="14.79745571321">
        <ele>167.2</ele>
        <time>2020-01-29T12:31:58Z</time>
      </trkpt>
      <trkpt lat="56.861879460557" lon="14.797656962629">
        <ele>167.2</ele>
        <time>2020-01-29T12:32:03Z</time>
      </trkpt>
      <trkpt lat="56.861985994506" lon="14.797922668859">
        <ele>167.2</ele>
        <time>2020-01-29T12:32:08Z</time>
      </trkpt>
      <trkpt lat="56.862211802892" lon="14.797943958885">
        <ele>167.2</ele>
        <time>2020-01-29T12:32:15Z</time>
      </trkpt>
      <trkpt lat="56.862414141958" lon="14.797964159264">
        <ele>167</ele>
        <time>2020-01-29T12:32:20Z</time>
      </trkpt>
      <trkpt lat="56.862627880408" lon="14.79796952368">
        <ele>167.2</ele>
        <time>2020-01-29T12:32:26Z</time>
      </trkpt>
      <trkpt lat="56.862731564511" lon="14.797958124296">
        <ele>166.8</ele>
        <time>2020-01-29T12:32:29Z</time>
      </trkpt>
      <trkpt lat="56.862944632409" lon="14.797914454597">
        <ele>166.6</ele>
        <time>2020-01-29T12:32:36Z</time>
      </trkpt>
      <trkpt lat="56.863128447476" lon="14.797852260899">
        <ele>167</ele>
        <time>2020-01-29T12:32:43Z</time>
      </trkpt>
      <trkpt lat="56.863309077421" lon="14.797879921169">
        <ele>167.2</ele>
        <time>2020-01-29T12:32:48Z</time>
      </trkpt>
      <trkpt lat="56.863489539728" lon="14.797775985609">
        <ele>167.2</ele>
        <time>2020-01-29T12:32:53Z</time>
      </trkpt>
      <trkpt lat="56.863632954037" lon="14.797513296863">
        <ele>167.6</ele>
        <time>2020-01-29T12:33:01Z</time>
      </trkpt>
      <trkpt lat="56.863684586541" lon="14.797452863364">
        <ele>167.8</ele>
        <time>2020-01-29T12:33:03Z</time>
      </trkpt>
      <trkpt lat="56.863867982513" lon="14.797427885302">
        <ele>168.4</ele>
        <time>2020-01-29T12:33:09Z</time>
      </trkpt>
      <trkpt lat="56.863934115704" lon="14.797404415982">
        <ele>168.8</ele>
        <time>2020-01-29T12:33:11Z</time>
      </trkpt>
      <trkpt lat="56.864098568582" lon="14.79725957675">
        <ele>168.4</ele>
        <time>2020-01-29T12:33:16Z</time>
      </trkpt>
      <trkpt lat="56.864276767776" lon="14.797147343109">
        <ele>168.4</ele>
        <time>2020-01-29T12:33:22Z</time>
      </trkpt>
      <trkpt lat="56.864482375783" lon="14.797076516054">
        <ele>168.4</ele>
        <time>2020-01-29T12:33:28Z</time>
      </trkpt>
      <trkpt lat="56.864662502814" lon="14.796963025128">
        <ele>168.6</ele>
        <time>2020-01-29T12:33:34Z</time>
      </trkpt>
      <trkpt lat="56.864771970428" lon="14.796901585801">
        <ele>168.4</ele>
        <time>2020-01-29T12:33:39Z</time>
      </trkpt>
      <trkpt lat="56.86486735645" lon="14.796602016695">
        <ele>168.4</ele>
        <time>2020-01-29T12:33:46Z</time>
      </trkpt>
      <trkpt lat="56.864898034204" lon="14.796234638018">
        <ele>169</ele>
        <time>2020-01-29T12:33:53Z</time>
      </trkpt>
      <trkpt lat="56.864936590944" lon="14.795907660099">
        <ele>169</ele>
        <time>2020-01-29T12:34:00Z</time>
      </trkpt>
      <trkpt lat="56.865019655573" lon="14.795577161782">
        <ele>169.4</ele>
        <time>2020-01-29T12:34:07Z</time>
      </trkpt>
      <trkpt lat="56.865136666897" lon="14.795268540224">
        <ele>168.8</ele>
        <time>2020-01-29T12:34:13Z</time>
      </trkpt>
      <trkpt lat="56.865316458652" lon="14.795140045697">
        <ele>169.2</ele>
        <time>2020-01-29T12:34:19Z</time>
      </trkpt>
      <trkpt lat="56.865497340054" lon="14.795107356287">
        <ele>169.6</ele>
        <time>2020-01-29T12:34:25Z</time>
      </trkpt>
      <trkpt lat="56.865678053818" lon="14.795087575003">
        <ele>169.4</ele>
        <time>2020-01-29T12:34:31Z</time>
      </trkpt>
      <trkpt lat="56.865841417049" lon="14.794924714686">
        <ele>169.6</ele>
        <time>2020-01-29T12:34:37Z</time>
      </trkpt>
      <trkpt lat="56.865968905748" lon="14.794694966807">
        <ele>169.2</ele>
        <time>2020-01-29T12:34:43Z</time>
      </trkpt>
      <trkpt lat="56.865984076987" lon="14.794604777563">
        <ele>169.4</ele>
        <time>2020-01-29T12:34:45Z</time>
      </trkpt>
      <trkpt lat="56.865992291249" lon="14.79432423537">
        <ele>170</ele>
        <time>2020-01-29T12:34:50Z</time>
      </trkpt>
      <trkpt lat="56.866005031737" lon="14.79427729673">
        <ele>169.8</ele>
        <time>2020-01-29T12:34:51Z</time>
      </trkpt>
      <trkpt lat="56.866154145738" lon="14.794023408979">
        <ele>169.6</ele>
        <time>2020-01-29T12:35:00Z</time>
      </trkpt>
      <trkpt lat="56.866258165117" lon="14.793885442905">
        <ele>170.4</ele>
        <time>2020-01-29T12:35:07Z</time>
      </trkpt>
      <trkpt lat="56.866370314939" lon="14.793804809027">
        <ele>171.2</ele>
        <time>2020-01-29T12:35:13Z</time>
      </trkpt>
      <trkpt lat="56.86649176867" lon="14.793689976997">
        <ele>172.2</ele>
        <time>2020-01-29T12:35:18Z</time>
      </trkpt>
      <trkpt lat="56.866535019274" lon="14.793640607606">
        <ele>172.8</ele>
        <time>2020-01-29T12:35:20Z</time>
      </trkpt>
      <trkpt lat="56.866576509679" lon="14.793645050013">
        <ele>173.2</ele>
        <time>2020-01-29T12:35:22Z</time>
      </trkpt>
      <trkpt lat="56.866737693616" lon="14.793806485407">
        <ele>173</ele>
        <time>2020-01-29T12:35:28Z</time>
      </trkpt>
      <trkpt lat="56.866907678548" lon="14.793996335442">
        <ele>172.8</ele>
        <time>2020-01-29T12:35:34Z</time>
      </trkpt>
      <trkpt lat="56.867049667934" lon="14.794212169367">
        <ele>172.6</ele>
        <time>2020-01-29T12:35:39Z</time>
      </trkpt>
      <trkpt lat="56.867138264617" lon="14.794364384671">
        <ele>172.2</ele>
        <time>2020-01-29T12:35:43Z</time>
      </trkpt>
      <trkpt lat="56.867282433297" lon="14.794583990451">
        <ele>171.4</ele>
        <time>2020-01-29T12:35:49Z</time>
      </trkpt>
      <trkpt lat="56.867336245095" lon="14.794654398411">
        <ele>171.2</ele>
        <time>2020-01-29T12:35:51Z</time>
      </trkpt>
      <trkpt lat="56.867488125123" lon="14.794886493222">
        <ele>171.2</ele>
        <time>2020-01-29T12:35:58Z</time>
      </trkpt>
      <trkpt lat="56.867671185819" lon="14.795040636363">
        <ele>171</ele>
        <time>2020-01-29T12:36:04Z</time>
      </trkpt>
      <trkpt lat="56.867779060872" lon="14.795060920561">
        <ele>170.6</ele>
        <time>2020-01-29T12:36:07Z</time>
      </trkpt>
      <trkpt lat="56.867949045804" lon="14.79489839552">
        <ele>170.4</ele>
        <time>2020-01-29T12:36:13Z</time>
      </trkpt>
      <trkpt lat="56.868110565017" lon="14.794683148328">
        <ele>170.6</ele>
        <time>2020-01-29T12:36:20Z</time>
      </trkpt>
      <trkpt lat="56.868184409556" lon="14.794508972446">
        <ele>170.6</ele>
        <time>2020-01-29T12:36:24Z</time>
      </trkpt>
      <trkpt lat="56.868268144737" lon="14.794399923927">
        <ele>170</ele>
        <time>2020-01-29T12:36:28Z</time>
      </trkpt>
      <trkpt lat="56.868344671484" lon="14.7943468665">
        <ele>169.4</ele>
        <time>2020-01-29T12:36:30Z</time>
      </trkpt>
      <trkpt lat="56.868383312043" lon="14.794230441909">
        <ele>168.8</ele>
        <time>2020-01-29T12:36:32Z</time>
      </trkpt>
      <trkpt lat="56.868493617847" lon="14.793940679626">
        <ele>168.8</ele>
        <time>2020-01-29T12:36:37Z</time>
      </trkpt>
      <trkpt lat="56.86858221453" lon="14.793633818267">
        <ele>168.8</ele>
        <time>2020-01-29T12:36:43Z</time>
      </trkpt>
      <trkpt lat="56.868708697401" lon="14.793334081523">
        <ele>169.4</ele>
        <time>2020-01-29T12:36:49Z</time>
      </trkpt>
      <trkpt lat="56.868824786716" lon="14.792999224618">
        <ele>169</ele>
        <time>2020-01-29T12:36:55Z</time>
      </trkpt>
      <trkpt lat="56.868894356486" lon="14.792631510665">
        <ele>169</ele>
        <time>2020-01-29T12:37:01Z</time>
      </trkpt>
      <trkpt lat="56.868970212681" lon="14.792291792258">
        <ele>168.4</ele>
        <time>2020-01-29T12:37:07Z</time>
      </trkpt>
      <trkpt lat="56.869062665038" lon="14.791995324455">
        <ele>168.6</ele>
        <time>2020-01-29T12:37:13Z</time>
      </trkpt>
      <trkpt lat="56.869152602825" lon="14.791656108962">
        <ele>169</ele>
        <time>2020-01-29T12:37:19Z</time>
      </trkpt>
      <trkpt lat="56.869234577807" lon="14.791355282571">
        <ele>168.8</ele>
        <time>2020-01-29T12:37:25Z</time>
      </trkpt>
      <trkpt lat="56.869313367667" lon="14.79105864713">
        <ele>169.4</ele>
        <time>2020-01-29T12:37:31Z</time>
      </trkpt>
      <trkpt lat="56.8693810096" lon="14.790714318678">
        <ele>169</ele>
        <time>2020-01-29T12:37:37Z</time>
      </trkpt>
      <trkpt lat="56.869458290718" lon="14.790375187004">
        <ele>168.4</ele>
        <time>2020-01-29T12:37:43Z</time>
      </trkpt>
      <trkpt lat="56.869533392542" lon="14.790039659547">
        <ele>168.2</ele>
        <time>2020-01-29T12:37:49Z</time>
      </trkpt>
      <trkpt lat="56.869609500194" lon="14.789720309157">
        <ele>168</ele>
        <time>2020-01-29T12:37:55Z</time>
      </trkpt>
      <trkpt lat="56.869646129097" lon="14.789534733891">
        <ele>167.8</ele>
        <time>2020-01-29T12:37:59Z</time>
      </trkpt>
      <trkpt lat="56.869724835138" lon="14.789240948296">
        <ele>167.6</ele>
        <time>2020-01-29T12:38:05Z</time>
      </trkpt>
      <trkpt lat="56.869837739331" lon="14.788978008093">
        <ele>167.4</ele>
        <time>2020-01-29T12:38:11Z</time>
      </trkpt>
      <trkpt lat="56.869859699909" lon="14.788974655333">
        <ele>167.4</ele>
        <time>2020-01-29T12:38:12Z</time>
      </trkpt>
      <trkpt lat="56.870053824713" lon="14.789071466278">
        <ele>167.4</ele>
        <time>2020-01-29T12:38:19Z</time>
      </trkpt>
      <trkpt lat="56.870235795762" lon="14.789176994399">
        <ele>168.4</ele>
        <time>2020-01-29T12:38:26Z</time>
      </trkpt>
      <trkpt lat="56.870287009171" lon="14.789228794541">
        <ele>168.8</ele>
        <time>2020-01-29T12:38:28Z</time>
      </trkpt>
      <trkpt lat="56.870461101234" lon="14.789410681771">
        <ele>169.8</ele>
        <time>2020-01-29T12:38:35Z</time>
      </trkpt>
      <trkpt lat="56.870486163115" lon="14.789440856611">
        <ele>169.8</ele>
        <time>2020-01-29T12:38:36Z</time>
      </trkpt>
      <trkpt lat="56.870606024285" lon="14.789562645618">
        <ele>171.4</ele>
        <time>2020-01-29T12:38:40Z</time>
      </trkpt>
      <trkpt lat="56.870697051719" lon="14.789652415767">
        <ele>172.4</ele>
        <time>2020-01-29T12:38:43Z</time>
      </trkpt>
      <trkpt lat="56.870873993628" lon="14.789853749005">
        <ele>172.4</ele>
        <time>2020-01-29T12:38:49Z</time>
      </trkpt>
      <trkpt lat="56.870988071287" lon="14.789979226048">
        <ele>173.6</ele>
        <time>2020-01-29T12:38:53Z</time>
      </trkpt>
      <trkpt lat="56.871136682374" lon="14.79016848935">
        <ele>174</ele>
        <time>2020-01-29T12:38:59Z</time>
      </trkpt>
      <trkpt lat="56.87129459737" lon="14.790320369378">
        <ele>174.6</ele>
        <time>2020-01-29T12:39:05Z</time>
      </trkpt>
      <trkpt lat="56.871447315588" lon="14.790518936589">
        <ele>175.2</ele>
        <time>2020-01-29T12:39:11Z</time>
      </trkpt>
      <trkpt lat="56.871580001065" lon="14.790767627562">
        <ele>175.6</ele>
        <time>2020-01-29T12:39:17Z</time>
      </trkpt>
      <trkpt lat="56.871705981022" lon="14.791025622444">
        <ele>175.6</ele>
        <time>2020-01-29T12:39:23Z</time>
      </trkpt>
      <trkpt lat="56.871754596042" lon="14.791111956014">
        <ele>175.6</ele>
        <time>2020-01-29T12:39:25Z</time>
      </trkpt>
      <trkpt lat="56.871905554061" lon="14.791377326968">
        <ele>174.8</ele>
        <time>2020-01-29T12:39:31Z</time>
      </trkpt>
      <trkpt lat="56.871934387797" lon="14.791414961699">
        <ele>174.6</ele>
        <time>2020-01-29T12:39:32Z</time>
      </trkpt>
      <trkpt lat="56.872101103788" lon="14.791638842248">
        <ele>173.8</ele>
        <time>2020-01-29T12:39:38Z</time>
      </trkpt>
      <trkpt lat="56.872194478154" lon="14.791732887166">
        <ele>173.4</ele>
        <time>2020-01-29T12:39:41Z</time>
      </trkpt>
      <trkpt lat="56.872359853041" lon="14.791891472714">
        <ele>174</ele>
        <time>2020-01-29T12:39:47Z</time>
      </trkpt>
      <trkpt lat="56.872549535438" lon="14.792044274751">
        <ele>174.2</ele>
        <time>2020-01-29T12:39:54Z</time>
      </trkpt>
      <trkpt lat="56.87260887929" lon="14.792082580034">
        <ele>174.6</ele>
        <time>2020-01-29T12:39:56Z</time>
      </trkpt>
      <trkpt lat="56.872750449581" lon="14.792284500005">
        <ele>175.6</ele>
        <time>2020-01-29T12:40:02Z</time>
      </trkpt>
      <trkpt lat="56.872873076778" lon="14.79248776108">
        <ele>175.8</ele>
        <time>2020-01-29T12:40:08Z</time>
      </trkpt>
      <trkpt lat="56.873064519374" lon="14.79259756397">
        <ele>176.4</ele>
        <time>2020-01-29T12:40:14Z</time>
      </trkpt>
      <trkpt lat="56.873242215654" lon="14.792651124311">
        <ele>176</ele>
        <time>2020-01-29T12:40:20Z</time>
      </trkpt>
      <trkpt lat="56.873259985282" lon="14.79264869356">
        <ele>176.2</ele>
        <time>2020-01-29T12:40:21Z</time>
      </trkpt>
    </trkseg>
  </trk>
</gpx>